Time;durP1;ratioP1;P1;durP2;ratioP2;P2;SDS_P1;SDS_P2;PMS_P1;PMS_P2;Temp;Humidity;BMP_temperature;BMP_pressure;BME280_temperature;BME280_humidity;BME280_pressure;Samples;Min_cycle;Max_cycle;Signal;HPM_P1;HPM_P2
2024/01/09 00:00:44;;;;;;;16.10;15.05;;;;;;;;;;5097383;28;20317;-65
2024/01/09 00:03:11;;;;;;;16.52;15.02;;;;;;;;;;5099844;28;20293;-65
2024/01/09 00:05:37;;;;;;;16.38;15.30;;;;;;;;;;5093969;28;20676;-64
2024/01/09 00:08:05;;;;;;;15.82;14.93;;;;;;;;;;5096446;28;20224;-64
2024/01/09 00:10:32;;;;;;;16.50;15.45;;;;;;;;;;5095847;28;20297;-64
2024/01/09 00:12:59;;;;;;;18.50;16.83;;;;;;;;;;5098803;28;20204;-64
2024/01/09 00:15:25;;;;;;;16.65;15.55;;;;;;;;;;5096929;28;20523;-64
2024/01/09 00:17:51;;;;;;;16.08;15.07;;;;;;;;;;5097653;28;20706;-64
2024/01/09 00:20:19;;;;;;;15.90;14.95;;;;;;;;;;5100027;28;20240;-64
2024/01/09 00:22:45;;;;;;;16.60;15.70;;;;;;;;;;5097591;28;20205;-64
2024/01/09 00:25:16;;;;;;;17.60;16.40;;;;;;;;;;5090880;28;20272;-64
2024/01/09 00:27:42;;;;;;;17.02;16.02;;;;;;;;;;5099878;28;20240;-64
2024/01/09 00:30:09;;;;;;;17.42;16.27;;;;;;;;;;5094584;28;20214;-65
2024/01/09 00:32:35;;;;;;;17.00;15.77;;;;;;;;;;5107856;28;20235;-64
2024/01/09 00:35:02;;;;;;;16.52;15.27;;;;;;;;;;5094746;28;20539;-65
2024/01/09 00:37:28;;;;;;;15.55;14.55;;;;;;;;;;5098501;28;20651;-64
2024/01/09 00:39:54;;;;;;;16.23;15.20;;;;;;;;;;5107122;28;21035;-64
2024/01/09 00:42:22;;;;;;;16.80;15.70;;;;;;;;;;5098227;28;20236;-65
2024/01/09 00:44:49;;;;;;;17.90;16.50;;;;;;;;;;5098049;28;20244;-64
2024/01/09 00:47:15;;;;;;;16.00;15.00;;;;;;;;;;5092602;28;20303;-65
2024/01/09 00:49:41;;;;;;;16.27;15.05;;;;;;;;;;5093690;28;20252;-64
2024/01/09 00:52:08;;;;;;;16.63;15.50;;;;;;;;;;5094318;28;20263;-64
2024/01/09 00:54:34;;;;;;;16.95;15.30;;;;;;;;;;5104986;28;20717;-65
2024/01/09 00:57:01;;;;;;;11.73;10.93;;;;;;;;;;5098405;28;20263;-64
2024/01/09 00:59:28;;;;;;;12.25;11.30;;;;;;;;;;5098500;28;20243;-64
2024/01/09 01:01:55;;;;;;;11.80;10.70;;;;;;;;;;5096602;28;20617;-64
2024/01/09 01:04:21;;;;;;;17.65;16.25;;;;;;;;;;5106042;28;20570;-64
2024/01/09 01:06:48;;;;;;;19.25;17.98;;;;;;;;;;5096883;28;20248;-64
2024/01/09 01:09:13;;;;;;;18.73;17.35;;;;;;;;;;5101277;28;20220;-64
2024/01/09 01:11:39;;;;;;;17.80;16.60;;;;;;;;;;5094917;28;20209;-64
2024/01/09 01:14:06;;;;;;;15.65;14.63;;;;;;;;;;5094502;28;20295;-64
2024/01/09 01:16:33;;;;;;;17.35;16.05;;;;;;;;;;5094888;28;20265;-64
2024/01/09 01:19:00;;;;;;;18.27;16.67;;;;;;;;;;5088675;28;20217;-64
2024/01/09 01:21:26;;;;;;;17.25;16.05;;;;;;;;;;5096303;28;20295;-64
2024/01/09 01:23:53;;;;;;;17.90;16.70;;;;;;;;;;5099584;28;20698;-64
2024/01/09 01:26:19;;;;;;;18.27;16.52;;;;;;;;;;5098171;28;20251;-65
2024/01/09 01:28:45;;;;;;;17.30;15.95;;;;;;;;;;5101808;28;20244;-65
2024/01/09 01:31:12;;;;;;;16.65;15.35;;;;;;;;;;5096826;28;20212;-65
2024/01/09 01:33:40;;;;;;;17.50;16.15;;;;;;;;;;5098275;28;20270;-65
2024/01/09 01:36:06;;;;;;;16.80;15.60;;;;;;;;;;5098019;28;20229;-65
2024/01/09 01:38:33;;;;;;;16.90;15.63;;;;;;;;;;5092023;28;20225;-65
2024/01/09 01:40:59;;;;;;;16.48;15.23;;;;;;;;;;5097435;28;20281;-64
2024/01/09 01:43:25;;;;;;;17.45;15.80;;;;;;;;;;5099001;28;20210;-64
2024/01/09 01:45:52;;;;;;;16.50;15.43;;;;;;;;;;5098098;28;20248;-65
2024/01/09 01:48:19;;;;;;;16.58;15.30;;;;;;;;;;5094000;28;20255;-64
2024/01/09 01:50:48;;;;;;;17.05;15.75;;;;;;;;;;5095918;28;20267;-64
2024/01/09 01:53:14;;;;;;;16.88;15.77;;;;;;;;;;5092000;28;20299;-65
2024/01/09 01:55:41;;;;;;;17.60;16.30;;;;;;;;;;5093762;28;20206;-64
2024/01/09 01:58:07;;;;;;;17.50;16.20;;;;;;;;;;5100658;28;20210;-64
2024/01/09 02:00:34;;;;;;;17.38;15.98;;;;;;;;;;5103287;28;20243;-64
2024/01/09 02:03:00;;;;;;;17.30;15.85;;;;;;;;;;5096380;28;20233;-64
2024/01/09 02:05:28;;;;;;;16.83;15.55;;;;;;;;;;5097049;28;20243;-65
2024/01/09 02:07:57;;;;;;;17.38;16.20;;;;;;;;;;5098202;28;20205;-64
2024/01/09 02:10:23;;;;;;;16.02;14.77;;;;;;;;;;5091030;28;20241;-65
2024/01/09 02:12:50;;;;;;;15.80;14.70;;;;;;;;;;5099554;28;20251;-65
2024/01/09 02:15:16;;;;;;;16.80;15.45;;;;;;;;;;5095150;28;20205;-64
2024/01/09 02:17:43;;;;;;;16.65;15.30;;;;;;;;;;5095616;28;20240;-64
2024/01/09 02:20:10;;;;;;;11.88;10.95;;;;;;;;;;5088799;28;20217;-64
2024/01/09 02:22:36;;;;;;;14.88;13.02;;;;;;;;;;5096430;28;20243;-64
2024/01/09 02:25:04;;;;;;;13.15;12.07;;;;;;;;;;5093417;28;20224;-65
2024/01/09 02:27:36;;;;;;;13.82;12.48;;;;;;;;;;5093114;28;20283;-65
2024/01/09 02:30:04;;;;;;;12.48;11.25;;;;;;;;;;5088301;28;20336;-65
2024/01/09 02:32:30;;;;;;;13.57;12.38;;;;;;;;;;5087859;28;20284;-65
2024/01/09 02:34:57;;;;;;;12.70;11.32;;;;;;;;;;5091338;28;20233;-64
2024/01/09 02:37:23;;;;;;;12.98;11.88;;;;;;;;;;5096721;28;20705;-63
2024/01/09 02:39:50;;;;;;;14.18;12.55;;;;;;;;;;5096357;28;20236;-64
2024/01/09 02:42:16;;;;;;;12.18;11.23;;;;;;;;;;5083758;28;20253;-64
2024/01/09 02:44:42;;;;;;;13.35;12.05;;;;;;;;;;5091942;28;20311;-64
2024/01/09 02:47:10;;;;;;;11.77;10.73;;;;;;;;;;5091916;28;20276;-64
2024/01/09 02:49:37;;;;;;;13.52;12.10;;;;;;;;;;5094861;28;20299;-64
2024/01/09 02:52:03;;;;;;;13.45;12.10;;;;;;;;;;5093583;28;20220;-64
2024/01/09 02:54:30;;;;;;;13.48;12.32;;;;;;;;;;5095769;28;20256;-64
2024/01/09 02:56:56;;;;;;;14.73;13.23;;;;;;;;;;5099788;28;20272;-64
2024/01/09 02:59:23;;;;;;;14.05;12.65;;;;;;;;;;5099777;28;20331;-64
2024/01/09 03:01:50;;;;;;;14.25;13.00;;;;;;;;;;5091129;28;20213;-64
2024/01/09 03:04:18;;;;;;;12.40;11.40;;;;;;;;;;5095436;28;20236;-63
2024/01/09 03:06:44;;;;;;;15.52;11.50;;;;;;;;;;5085159;28;20245;-63
2024/01/09 03:09:11;;;;;;;12.88;11.88;;;;;;;;;;5093744;28;20311;-64
2024/01/09 03:11:37;;;;;;;12.80;11.50;;;;;;;;;;5088360;28;20243;-64
2024/01/09 03:14:04;;;;;;;14.13;12.77;;;;;;;;;;5095877;28;20652;-63
2024/01/09 03:16:30;;;;;;;14.40;11.50;;;;;;;;;;5093958;28;20312;-63
2024/01/09 03:18:57;;;;;;;12.90;11.70;;;;;;;;;;5093111;28;20202;-64
2024/01/09 03:21:24;;;;;;;12.35;11.25;;;;;;;;;;5089871;28;20280;-63
2024/01/09 03:23:51;;;;;;;15.05;13.13;;;;;;;;;;5099400;28;20244;-63
2024/01/09 03:26:17;;;;;;;12.50;11.40;;;;;;;;;;5097478;28;20244;-63
2024/01/09 03:28:44;;;;;;;13.52;12.25;;;;;;;;;;5099169;28;20584;-63
2024/01/09 03:31:18;;;;;;;18.05;16.35;;;;;;;;;;5096790;28;20208;-63
2024/01/09 03:33:44;;;;;;;11.50;10.55;;;;;;;;;;5087780;28;20240;-63
2024/01/09 03:36:12;;;;;;;13.77;12.38;;;;;;;;;;5093265;28;20828;-63
2024/01/09 03:38:40;;;;;;;14.00;12.55;;;;;;;;;;5091604;28;20209;-63
2024/01/09 03:41:06;;;;;;;15.35;12.63;;;;;;;;;;5102416;28;20205;-63
2024/01/09 03:43:33;;;;;;;11.70;10.70;;;;;;;;;;5093043;28;20248;-63
2024/01/09 03:45:59;;;;;;;13.00;11.75;;;;;;;;;;5091904;28;20288;-63
2024/01/09 03:48:26;;;;;;;16.02;12.80;;;;;;;;;;5088112;28;20205;-63
2024/01/09 03:50:52;;;;;;;13.45;12.25;;;;;;;;;;5098807;28;20240;-63
2024/01/09 03:53:19;;;;;;;13.27;12.15;;;;;;;;;;5091594;28;20208;-64
2024/01/09 03:55:46;;;;;;;14.88;13.43;;;;;;;;;;5094199;28;20247;-63
2024/01/09 03:58:13;;;;;;;16.10;11.80;;;;;;;;;;5095278;28;20256;-63
2024/01/09 04:00:40;;;;;;;12.40;10.68;;;;;;;;;;5097565;28;20251;-63
2024/01/09 04:03:06;;;;;;;13.52;12.20;;;;;;;;;;5104473;28;20240;-63
2024/01/09 04:05:33;;;;;;;15.05;12.60;;;;;;;;;;5099267;28;20240;-63
2024/01/09 04:07:59;;;;;;;13.30;11.82;;;;;;;;;;5090454;28;20213;-63
2024/01/09 04:10:26;;;;;;;13.75;11.43;;;;;;;;;;5095645;28;20253;-63
2024/01/09 04:12:54;;;;;;;13.05;11.65;;;;;;;;;;5093118;28;20239;-63
2024/01/09 04:15:20;;;;;;;12.18;10.93;;;;;;;;;;5095782;28;20197;-63
2024/01/09 04:17:47;;;;;;;13.52;12.30;;;;;;;;;;5089992;28;20760;-63
2024/01/09 04:20:13;;;;;;;16.90;15.38;;;;;;;;;;5095005;28;20308;-63
2024/01/09 04:22:39;;;;;;;17.33;15.57;;;;;;;;;;5103496;28;20394;-63
2024/01/09 04:25:06;;;;;;;17.42;15.95;;;;;;;;;;5100998;28;20237;-63
2024/01/09 04:27:32;;;;;;;16.45;15.20;;;;;;;;;;5098779;28;20316;-63
2024/01/09 04:30:00;;;;;;;17.10;15.80;;;;;;;;;;5095291;28;20280;-63
2024/01/09 04:32:27;;;;;;;17.92;16.23;;;;;;;;;;5086191;28;20252;-63
2024/01/09 04:34:54;;;;;;;17.98;16.42;;;;;;;;;;5099379;28;20300;-63
2024/01/09 04:37:20;;;;;;;17.38;15.85;;;;;;;;;;5100068;28;20229;-63
2024/01/09 04:39:46;;;;;;;14.73;11.63;;;;;;;;;;5093124;28;20250;-63
2024/01/09 04:42:13;;;;;;;14.43;11.18;;;;;;;;;;5094354;28;20267;-63
2024/01/09 04:44:39;;;;;;;15.73;11.73;;;;;;;;;;5100200;28;20300;-63
2024/01/09 04:47:07;;;;;;;12.35;11.15;;;;;;;;;;5092421;28;20736;-63
2024/01/09 04:49:33;;;;;;;13.38;12.10;;;;;;;;;;5099149;28;20236;-63
2024/01/09 04:52:00;;;;;;;12.02;10.90;;;;;;;;;;5088121;28;20300;-64
2024/01/09 04:54:26;;;;;;;12.73;11.65;;;;;;;;;;5099897;28;20733;-63
2024/01/09 04:56:52;;;;;;;12.40;11.15;;;;;;;;;;5089699;28;20666;-63
2024/01/09 04:59:19;;;;;;;11.75;10.75;;;;;;;;;;5097080;28;20336;-64
2024/01/09 05:01:49;;;;;;;13.70;10.90;;;;;;;;;;5099493;28;20696;-63
2024/01/09 05:04:17;;;;;;;11.77;10.55;;;;;;;;;;5086187;28;20202;-64
2024/01/09 05:06:43;;;;;;;11.50;10.55;;;;;;;;;;5102115;28;20242;-64
2024/01/09 05:09:10;;;;;;;15.38;11.20;;;;;;;;;;5100478;28;20771;-64
2024/01/09 05:11:36;;;;;;;13.77;12.43;;;;;;;;;;5095597;28;20204;-63
2024/01/09 05:14:03;;;;;;;13.98;12.05;;;;;;;;;;5097277;28;20219;-64
2024/01/09 05:16:29;;;;;;;14.13;11.90;;;;;;;;;;5100998;28;20260;-64
2024/01/09 05:18:56;;;;;;;12.90;10.88;;;;;;;;;;5098055;28;20266;-64
2024/01/09 05:21:24;;;;;;;14.60;11.57;;;;;;;;;;5100389;28;20212;-63
2024/01/09 05:23:50;;;;;;;15.85;11.07;;;;;;;;;;5095255;28;20806;-64
2024/01/09 05:26:17;;;;;;;12.63;11.40;;;;;;;;;;5099997;28;20705;-64
2024/01/09 05:28:43;;;;;;;11.73;10.63;;;;;;;;;;5092670;28;20292;-63
2024/01/09 05:31:09;;;;;;;12.48;11.43;;;;;;;;;;5100927;28;20209;-63
2024/01/09 05:33:36;;;;;;;14.75;11.52;;;;;;;;;;5090052;28;20202;-63
2024/01/09 05:36:02;;;;;;;14.30;11.32;;;;;;;;;;5091328;28;20320;-63
2024/01/09 05:38:30;;;;;;;19.15;11.25;;;;;;;;;;5106962;28;20283;-64
2024/01/09 05:40:57;;;;;;;12.82;11.40;;;;;;;;;;5094167;28;20280;-64
2024/01/09 05:43:23;;;;;;;17.40;15.65;;;;;;;;;;5100405;28;20244;-64
2024/01/09 05:45:49;;;;;;;19.90;18.10;;;;;;;;;;5096101;28;20289;-63
2024/01/09 05:48:16;;;;;;;17.77;16.40;;;;;;;;;;5097108;28;20297;-64
2024/01/09 05:50:42;;;;;;;19.60;17.70;;;;;;;;;;5101428;28;20245;-64
2024/01/09 05:53:09;;;;;;;16.90;15.40;;;;;;;;;;5097987;28;20255;-64
2024/01/09 05:55:36;;;;;;;18.70;16.98;;;;;;;;;;5101489;28;20232;-64
2024/01/09 05:58:03;;;;;;;16.65;14.35;;;;;;;;;;5099673;28;20296;-64
2024/01/09 06:00:30;;;;;;;14.32;11.00;;;;;;;;;;5099087;28;20277;-64
2024/01/09 06:02:56;;;;;;;14.18;12.73;;;;;;;;;;5100391;28;20332;-64
2024/01/09 06:05:23;;;;;;;11.88;9.82;;;;;;;;;;5096771;28;20740;-63
2024/01/09 06:07:49;;;;;;;16.88;15.27;;;;;;;;;;5099887;28;20240;-64
2024/01/09 06:10:16;;;;;;;18.75;17.13;;;;;;;;;;5094630;28;20278;-64
2024/01/09 06:12:43;;;;;;;16.88;15.30;;;;;;;;;;5107980;28;20213;-64
2024/01/09 06:15:10;;;;;;;17.30;15.98;;;;;;;;;;5096367;28;20212;-64
2024/01/09 06:17:36;;;;;;;17.77;16.08;;;;;;;;;;5100126;28;20671;-63
2024/01/09 06:20:04;;;;;;;15.00;11.40;;;;;;;;;;5102801;28;20246;-64
2024/01/09 06:22:30;;;;;;;15.55;12.18;;;;;;;;;;5093447;28;20295;-64
2024/01/09 06:24:56;;;;;;;20.02;12.95;;;;;;;;;;5093739;28;20207;-63
2024/01/09 06:27:23;;;;;;;14.07;12.38;;;;;;;;;;5093770;28;20276;-63
2024/01/09 06:29:50;;;;;;;15.32;11.40;;;;;;;;;;5096313;28;20273;-64
2024/01/09 06:32:17;;;;;;;13.27;11.60;;;;;;;;;;5090120;28;20797;-64
2024/01/09 06:34:43;;;;;;;13.18;11.98;;;;;;;;;;5099906;28;20224;-64
2024/01/09 06:37:10;;;;;;;13.32;11.88;;;;;;;;;;5089265;28;20332;-62
2024/01/09 06:39:36;;;;;;;17.45;11.75;;;;;;;;;;5092464;28;20209;-62
2024/01/09 06:42:03;;;;;;;14.75;12.18;;;;;;;;;;5100153;28;20256;-62
2024/01/09 06:44:29;;;;;;;13.93;12.63;;;;;;;;;;5094534;28;20862;-62
2024/01/09 06:46:57;;;;;;;12.48;11.15;;;;;;;;;;5088702;28;20265;-62
2024/01/09 06:49:23;;;;;;;13.02;11.20;;;;;;;;;;5095020;28;20273;-62
2024/01/09 06:51:49;;;;;;;14.50;11.80;;;;;;;;;;5090616;28;20269;-62
2024/01/09 06:54:16;;;;;;;15.68;11.82;;;;;;;;;;5093597;28;20205;-62
2024/01/09 06:56:44;;;;;;;18.05;12.60;;;;;;;;;;5092858;28;21008;-61
2024/01/09 06:59:10;;;;;;;15.82;14.25;;;;;;;;;;5090843;28;20209;-62
2024/01/09 07:01:38;;;;;;;14.00;12.60;;;;;;;;;;5098050;28;20213;-62
2024/01/09 07:04:06;;;;;;;13.93;11.77;;;;;;;;;;5091532;28;20200;-62
2024/01/09 07:06:32;;;;;;;18.45;12.88;;;;;;;;;;5095925;28;20289;-62
2024/01/09 07:08:58;;;;;;;12.45;11.18;;;;;;;;;;5101419;28;20248;-62
2024/01/09 07:11:25;;;;;;;14.65;11.98;;;;;;;;;;5091479;28;20236;-62
2024/01/09 07:13:51;;;;;;;14.00;11.35;;;;;;;;;;5093866;28;20241;-62
2024/01/09 07:16:18;;;;;;;16.10;14.52;;;;;;;;;;5098682;28;20209;-62
2024/01/09 07:18:44;;;;;;;17.05;15.48;;;;;;;;;;5098355;28;20196;-61
2024/01/09 07:21:12;;;;;;;19.73;17.50;;;;;;;;;;5097262;28;20681;-61
2024/01/09 07:23:38;;;;;;;14.30;13.10;;;;;;;;;;5104802;28;20201;-61
2024/01/09 07:26:05;;;;;;;17.70;12.93;;;;;;;;;;5095877;28;20272;-61
2024/01/09 07:28:31;;;;;;;13.52;11.52;;;;;;;;;;5107491;28;20312;-61
2024/01/09 07:30:57;;;;;;;13.52;12.13;;;;;;;;;;5102989;28;20676;-61
2024/01/09 07:33:24;;;;;;;12.93;11.65;;;;;;;;;;5089087;28;20295;-61
2024/01/09 07:35:50;;;;;;;15.90;12.10;;;;;;;;;;5093585;28;20271;-61
2024/01/09 07:38:23;;;;;;;14.30;13.00;;;;;;;;;;5095244;28;20732;-61
2024/01/09 07:40:50;;;;;;;13.95;12.50;;;;;;;;;;5105199;28;20216;-63
2024/01/09 07:43:16;;;;;;;13.55;12.27;;;;;;;;;;5099473;28;20272;-63
2024/01/09 07:45:43;;;;;;;16.92;13.52;;;;;;;;;;5102106;28;20269;-63
2024/01/09 07:48:10;;;;;;;14.85;12.95;;;;;;;;;;5109524;28;20795;-63
2024/01/09 07:50:36;;;;;;;14.45;12.68;;;;;;;;;;5097351;28;20278;-63
2024/01/09 07:53:03;;;;;;;14.98;12.90;;;;;;;;;;5094488;28;20236;-62
2024/01/09 07:55:31;;;;;;;15.45;12.73;;;;;;;;;;5100351;28;20209;-61
2024/01/09 07:57:58;;;;;;;17.25;12.90;;;;;;;;;;5101572;28;20202;-61
2024/01/09 08:00:25;;;;;;;15.13;12.98;;;;;;;;;;5099696;28;20241;-62
2024/01/09 08:02:51;;;;;;;13.98;12.15;;;;;;;;;;5090192;28;20285;-61
2024/01/09 08:05:18;;;;;;;13.43;12.10;;;;;;;;;;5092205;28;20236;-62
2024/01/09 08:07:44;;;;;;;14.00;12.18;;;;;;;;;;5100111;28;20232;-62
2024/01/09 08:10:11;;;;;;;15.75;13.45;;;;;;;;;;5098453;28;20303;-61
2024/01/09 08:12:39;;;;;;;15.48;13.90;;;;;;;;;;5089667;28;20276;-61
2024/01/09 08:15:05;;;;;;;17.55;13.85;;;;;;;;;;5091147;28;20710;-62
2024/01/09 08:17:32;;;;;;;14.50;13.20;;;;;;;;;;5097810;28;20277;-64
2024/01/09 08:19:58;;;;;;;15.07;13.70;;;;;;;;;;5102255;28;20237;-62
2024/01/09 08:22:25;;;;;;;16.45;13.80;;;;;;;;;;5103123;28;20255;-62
2024/01/09 08:24:51;;;;;;;20.65;18.02;;;;;;;;;;5099814;28;20208;-62
2024/01/09 08:27:17;;;;;;;18.75;17.05;;;;;;;;;;5108826;28;20291;-62
2024/01/09 08:29:45;;;;;;;19.17;17.40;;;;;;;;;;5094221;28;20682;-61
2024/01/09 08:32:15;;;;;;;19.17;17.67;;;;;;;;;;5106393;28;20296;-62
2024/01/09 08:34:41;;;;;;;19.30;17.73;;;;;;;;;;5094260;28;20208;-63
2024/01/09 08:37:08;;;;;;;18.88;17.27;;;;;;;;;;5100622;28;20351;-63
2024/01/09 08:39:34;;;;;;;19.77;17.98;;;;;;;;;;5104370;28;20222;-63
2024/01/09 08:42:00;;;;;;;15.15;13.55;;;;;;;;;;5097690;28;20296;-62
2024/01/09 08:44:27;;;;;;;15.55;13.70;;;;;;;;;;5102796;28;20237;-63
2024/01/09 08:46:55;;;;;;;15.63;14.18;;;;;;;;;;5102302;28;20240;-63
2024/01/09 08:49:21;;;;;;;16.27;14.50;;;;;;;;;;5105111;28;20340;-63
2024/01/09 08:51:47;;;;;;;14.55;13.15;;;;;;;;;;5095269;28;20290;-63
2024/01/09 08:54:15;;;;;;;19.42;17.52;;;;;;;;;;5098959;28;20235;-61
2024/01/09 08:56:42;;;;;;;21.05;19.25;;;;;;;;;;5102071;28;20296;-62
2024/01/09 08:59:09;;;;;;;19.75;18.05;;;;;;;;;;5098400;28;20442;-62
2024/01/09 09:01:35;;;;;;;21.05;19.10;;;;;;;;;;5089813;28;20252;-62
2024/01/09 09:04:03;;;;;;;21.02;19.15;;;;;;;;;;5097056;28;20204;-62
2024/01/09 09:06:30;;;;;;;19.95;18.05;;;;;;;;;;5100824;28;20695;-62
2024/01/09 09:08:56;;;;;;;18.60;17.10;;;;;;;;;;5099188;28;20862;-63
2024/01/09 09:11:22;;;;;;;18.88;17.05;;;;;;;;;;5102524;28;20280;-63
2024/01/09 09:13:49;;;;;;;20.50;18.70;;;;;;;;;;5094857;28;20249;-64
2024/01/09 09:16:15;;;;;;;20.70;18.80;;;;;;;;;;5097368;28;20234;-62
2024/01/09 09:18:42;;;;;;;18.73;16.73;;;;;;;;;;5093667;28;20471;-62
2024/01/09 09:21:10;;;;;;;18.70;17.20;;;;;;;;;;5096589;28;20209;-63
2024/01/09 09:23:36;;;;;;;19.30;17.60;;;;;;;;;;5100362;28;20474;-63
2024/01/09 09:26:03;;;;;;;17.63;16.27;;;;;;;;;;5108475;28;20455;-63
2024/01/09 09:28:30;;;;;;;19.97;17.97;;;;;;;;;;5105006;28;20490;-63
2024/01/09 09:30:56;;;;;;;18.63;14.67;;;;;;;;;;5101300;28;20475;-63
2024/01/09 09:33:22;;;;;;;14.40;13.27;;;;;;;;;;5101226;28;20613;-63
2024/01/09 09:35:49;;;;;;;14.67;13.37;;;;;;;;;;5098566;28;20522;-63
2024/01/09 09:38:17;;;;;;;14.10;12.80;;;;;;;;;;5096686;28;20470;-63
2024/01/09 09:40:43;;;;;;;14.80;13.30;;;;;;;;;;5097619;28;20548;-63
2024/01/09 09:43:15;;;;;;;15.27;14.03;;;;;;;;;;5097407;28;20534;-63
2024/01/09 09:45:42;;;;;;;15.30;14.00;;;;;;;;;;5092600;28;20485;-63
2024/01/09 09:48:09;;;;;;;15.70;14.20;;;;;;;;;;5105960;28;20470;-63
2024/01/09 09:50:35;;;;;;;14.37;12.90;;;;;;;;;;5102910;28;20474;-63
2024/01/09 09:53:02;;;;;;;14.27;12.90;;;;;;;;;;5098956;28;20536;-63
2024/01/09 09:55:30;;;;;;;14.93;13.37;;;;;;;;;;5104440;28;20462;-63
2024/01/09 09:57:57;;;;;;;16.17;14.47;;;;;;;;;;5099637;28;20455;-63
2024/01/09 10:00:23;;;;;;;14.53;13.23;;;;;;;;;;5103857;28;20489;-63
2024/01/09 10:02:50;;;;;;;15.77;14.57;;;;;;;;;;5098508;28;20565;-63
2024/01/09 10:05:20;;;;;;;15.77;14.30;;;;;;;;;;5109152;28;21027;-63
2024/01/09 10:07:48;;;;;;;14.53;13.37;;;;;;;;;;5101334;28;20454;-63
2024/01/09 10:10:15;;;;;;;14.83;13.70;;;;;;;;;;5092906;28;20567;-62
2024/01/09 10:12:43;;;;;;;15.57;14.00;;;;;;;;;;5094123;28;20834;-63
2024/01/09 10:15:11;;;;;;;15.03;13.60;;;;;;;;;;5097023;28;21179;-63
2024/01/09 10:17:38;;;;;;;14.60;13.40;;;;;;;;;;5091274;28;20459;-63
2024/01/09 10:20:05;;;;;;;14.53;13.10;;;;;;;;;;5104171;28;20538;-63
2024/01/09 10:22:35;;;;;;;15.77;14.37;;;;;;;;;;5106158;28;20455;-63
2024/01/09 10:25:03;;;;;;;13.53;12.40;;;;;;;;;;5102601;28;20450;-63
2024/01/09 10:27:30;;;;;;;13.10;12.00;;;;;;;;;;5092240;28;20523;-63
2024/01/09 10:29:58;;;;;;;17.00;13.13;;;;;;;;;;5094235;28;21090;-63
2024/01/09 10:32:24;;;;;;;13.20;12.20;;;;;;;;;;5097627;28;20538;-63
2024/01/09 10:34:51;;;;;;;13.93;12.77;;;;;;;;;;5098855;28;20466;-63
2024/01/09 10:37:19;;;;;;;15.30;13.87;;;;;;;;;;5097505;28;20555;-63
2024/01/09 10:39:47;;;;;;;14.53;13.13;;;;;;;;;;5096907;28;20506;-63
2024/01/09 10:42:14;;;;;;;14.97;13.23;;;;;;;;;;5102703;28;20989;-63
2024/01/09 10:44:40;;;;;;;13.83;12.60;;;;;;;;;;5087630;28;20475;-63
2024/01/09 10:47:10;;;;;;;13.47;12.10;;;;;;;;;;5102308;28;20525;-63
2024/01/09 10:49:39;;;;;;;14.10;12.97;;;;;;;;;;5100972;28;21027;-63
2024/01/09 10:52:06;;;;;;;12.93;11.93;;;;;;;;;;5099243;28;20463;-62
2024/01/09 10:54:33;;;;;;;13.60;12.30;;;;;;;;;;5100507;28;20474;-62
2024/01/09 10:57:01;;;;;;;13.80;12.70;;;;;;;;;;5095074;28;20510;-62
2024/01/09 10:59:27;;;;;;;12.27;11.17;;;;;;;;;;5101533;28;20511;-62
2024/01/09 11:01:54;;;;;;;14.30;12.80;;;;;;;;;;5103399;28;20479;-62
2024/01/09 11:04:21;;;;;;;14.03;12.83;;;;;;;;;;5100181;28;20546;-62
2024/01/09 11:06:48;;;;;;;12.90;11.80;;;;;;;;;;5103741;28;20494;-63
2024/01/09 11:09:16;;;;;;;13.40;12.17;;;;;;;;;;5094520;28;20510;-62
2024/01/09 11:11:44;;;;;;;12.90;11.60;;;;;;;;;;5087967;28;20456;-62
2024/01/09 11:14:11;;;;;;;12.37;11.17;;;;;;;;;;5097434;28;20865;-62
2024/01/09 11:16:39;;;;;;;12.37;11.47;;;;;;;;;;5106728;28;21078;-62
2024/01/09 11:19:07;;;;;;;18.33;16.70;;;;;;;;;;5097941;28;20461;-62
2024/01/09 11:21:35;;;;;;;15.20;14.10;;;;;;;;;;5100772;28;20451;-62
2024/01/09 11:24:03;;;;;;;15.57;14.37;;;;;;;;;;5101442;28;20983;-62
2024/01/09 11:26:30;;;;;;;17.10;15.77;;;;;;;;;;5100221;28;20486;-69
2024/01/09 11:28:58;;;;;;;16.57;15.37;;;;;;;;;;5093263;28;20519;-71
2024/01/09 11:31:26;;;;;;;17.97;16.73;;;;;;;;;;5101493;28;20460;-71
2024/01/09 11:33:52;;;;;;;17.47;16.17;;;;;;;;;;5102697;28;20496;-65
2024/01/09 11:36:21;;;;;;;17.00;15.80;;;;;;;;;;5105600;28;20498;-71
2024/01/09 11:38:51;;;;;;;18.10;16.80;;;;;;;;;;5092471;28;20546;-70
2024/01/09 11:41:17;;;;;;;18.50;17.23;;;;;;;;;;5100211;28;21045;-68
2024/01/09 11:43:57;;;;;;;18.03;16.60;;;;;;;;;;5111278;28;20542;-68
2024/01/09 11:46:24;;;;;;;17.23;16.10;;;;;;;;;;5113283;28;20494;-69
2024/01/09 11:48:50;;;;;;;12.10;11.20;;;;;;;;;;5097345;28;20458;-70
2024/01/09 11:51:17;;;;;;;11.73;10.73;;;;;;;;;;5096566;28;20462;-67
2024/01/09 11:53:44;;;;;;;13.57;12.37;;;;;;;;;;5102147;28;20447;-71
2024/01/09 11:56:13;;;;;;;15.63;14.43;;;;;;;;;;5099438;28;20522;-70
2024/01/09 11:58:40;;;;;;;17.37;16.27;;;;;;;;;;5099419;28;20474;-69
2024/01/09 12:01:06;;;;;;;19.13;17.57;;;;;;;;;;5107271;28;20565;-69
2024/01/09 12:03:33;;;;;;;18.50;16.97;;;;;;;;;;5104990;28;20514;-67
2024/01/09 12:05:59;;;;;;;16.33;15.27;;;;;;;;;;5100381;28;20461;-69
2024/01/09 12:08:26;;;;;;;16.10;14.90;;;;;;;;;;5103073;28;20486;-69
2024/01/09 12:10:52;;;;;;;18.50;17.30;;;;;;;;;;5106397;28;21057;-69
2024/01/09 12:13:20;;;;;;;18.13;16.93;;;;;;;;;;5099806;28;20483;-66
2024/01/09 12:15:47;;;;;;;16.53;15.23;;;;;;;;;;5105045;28;20481;-70
2024/01/09 12:18:13;;;;;;;16.53;15.23;;;;;;;;;;5110965;28;20485;-70
2024/01/09 12:20:41;;;;;;;18.00;16.70;;;;;;;;;;5096693;28;20455;-70
2024/01/09 12:23:07;;;;;;;18.00;16.70;;;;;;;;;;5100696;28;20459;-70
2024/01/09 12:25:34;;;;;;;16.27;15.17;;;;;;;;;;5099555;28;20473;-68
2024/01/09 12:28:01;;;;;;;16.23;15.23;;;;;;;;;;5102962;28;20490;-71
2024/01/09 12:30:29;;;;;;;15.10;14.10;;;;;;;;;;5091449;28;20494;-69
2024/01/09 12:32:56;;;;;;;17.57;16.20;;;;;;;;;;5100346;28;20483;-70
2024/01/09 12:35:22;;;;;;;16.80;15.60;;;;;;;;;;5099154;28;20455;-68
2024/01/09 12:37:49;;;;;;;16.67;15.57;;;;;;;;;;5096226;28;20487;-70
2024/01/09 12:40:16;;;;;;;15.63;14.70;;;;;;;;;;5099415;28;20487;-70
2024/01/09 12:42:42;;;;;;;16.37;15.27;;;;;;;;;;5110556;28;20526;-65
2024/01/09 12:45:10;;;;;;;17.70;16.50;;;;;;;;;;5102375;28;20962;-70
2024/01/09 12:47:37;;;;;;;18.50;17.17;;;;;;;;;;5094430;28;20524;-68
2024/01/09 12:50:04;;;;;;;17.97;16.60;;;;;;;;;;5101013;28;20536;-67
2024/01/09 12:52:31;;;;;;;17.40;16.20;;;;;;;;;;5096173;28;20467;-67
2024/01/09 12:54:57;;;;;;;16.83;15.50;;;;;;;;;;5100976;28;20962;-71
2024/01/09 12:57:24;;;;;;;18.23;16.73;;;;;;;;;;5099132;28;21173;-67
2024/01/09 12:59:50;;;;;;;16.47;15.37;;;;;;;;;;5106402;28;20483;-66
2024/01/09 13:02:16;;;;;;;15.57;14.50;;;;;;;;;;5105650;28;20501;-67
2024/01/09 13:04:46;;;;;;;18.63;17.10;;;;;;;;;;5102448;28;20215;-68
2024/01/09 13:07:15;;;;;;;18.43;17.13;;;;;;;;;;5094398;28;20206;-69
2024/01/09 13:09:42;;;;;;;19.08;17.67;;;;;;;;;;5098764;28;20554;-70
2024/01/09 13:12:10;;;;;;;17.70;16.07;;;;;;;;;;5098418;28;20209;-68
2024/01/09 13:14:37;;;;;;;18.05;16.65;;;;;;;;;;5097555;28;20463;-68
2024/01/09 13:17:04;;;;;;;18.60;17.10;;;;;;;;;;5100342;28;20200;-69
2024/01/09 13:19:30;;;;;;;16.35;15.20;;;;;;;;;;5099950;28;20505;-69
2024/01/09 13:21:58;;;;;;;17.50;16.30;;;;;;;;;;5108220;28;20210;-65
2024/01/09 13:24:24;;;;;;;17.48;16.25;;;;;;;;;;5097767;28;20522;-69
2024/01/09 13:26:51;;;;;;;17.55;16.27;;;;;;;;;;5097948;28;20251;-69
2024/01/09 13:29:19;;;;;;;19.43;17.93;;;;;;;;;;5098999;28;20335;-70
2024/01/09 13:31:45;;;;;;;19.27;17.87;;;;;;;;;;5103098;28;20459;-67
2024/01/09 13:34:11;;;;;;;19.23;17.93;;;;;;;;;;5092208;28;20456;-70
2024/01/09 13:36:38;;;;;;;19.83;17.80;;;;;;;;;;5093780;28;21043;-69
2024/01/09 13:39:09;;;;;;;18.52;17.23;;;;;;;;;;5089261;28;20237;-69
2024/01/09 13:41:36;;;;;;;18.60;17.10;;;;;;;;;;5093613;28;20727;-70
2024/01/09 13:44:02;;;;;;;18.20;16.90;;;;;;;;;;5084258;28;20282;-70
2024/01/09 13:46:29;;;;;;;18.77;17.38;;;;;;;;;;5098350;28;20228;-69
2024/01/09 13:48:56;;;;;;;19.13;17.48;;;;;;;;;;5097364;28;20272;-66
2024/01/09 13:51:23;;;;;;;19.67;18.17;;;;;;;;;;5096805;28;20220;-68
2024/01/09 13:53:51;;;;;;;20.42;18.52;;;;;;;;;;5090130;28;20205;-70
2024/01/09 13:56:19;;;;;;;18.48;17.20;;;;;;;;;;5094009;28;20201;-68
2024/01/09 13:58:45;;;;;;;14.13;12.80;;;;;;;;;;5087076;28;20269;-70
2024/01/09 14:01:12;;;;;;;14.38;11.85;;;;;;;;;;5093090;28;20245;-68
2024/01/09 14:03:40;;;;;;;17.27;15.68;;;;;;;;;;5090976;28;20239;-67
2024/01/09 14:06:06;;;;;;;19.25;17.73;;;;;;;;;;5088719;28;20223;-70
2024/01/09 14:08:33;;;;;;;20.65;18.70;;;;;;;;;;5091440;28;20297;-68
2024/01/09 14:11:00;;;;;;;22.00;20.10;;;;;;;;;;5092962;28;20229;-69
2024/01/09 14:13:28;;;;;;;20.63;19.25;;;;;;;;;;5087494;28;20241;-69